Time;durP1;ratioP1;P1;durP2;ratioP2;P2;SDS_P1;SDS_P2;PMS_P1;PMS_P2;Temp;Humidity;BMP_temperature;BMP_pressure;BME280_temperature;BME280_humidity;BME280_pressure;Samples;Min_cycle;Max_cycle;Signal;HPM_P1;HPM_P2
2024/04/06 00:02:13;60267.00;0.20;104.94;0.00;0.00;0.62;;;;;17.40;1.00;;;;;;2272436;61;1113;-86
2024/04/06 00:04:41;112820.00;0.38;195.70;0.00;0.00;0.62;;;;;17.00;1.00;;;;;;2272460;61;1053;-84
2024/04/06 00:07:07;97805.00;0.33;169.78;0.00;0.00;0.62;;;;;16.80;1.00;;;;;;2272234;61;1288;-85
2024/04/06 00:09:34;48973.00;0.16;85.41;0.00;0.00;0.62;;;;;16.90;1.00;;;;;;2272374;61;1138;-86
2024/04/06 00:12:02;53439.00;0.18;93.13;0.00;0.00;0.62;;;;;17.10;1.00;;;;;;2272358;61;1919;-86
2024/04/06 00:14:28;164991.00;0.55;285.64;22629.00;0.08;39.82;;;;;17.30;1.00;;;;;;2272458;61;916;-86
2024/04/06 00:16:55;18512.00;0.06;32.69;0.00;0.00;0.62;;;;;17.40;1.00;;;;;;2272337;61;1300;-86
2024/04/06 00:19:21;36815.00;0.12;64.38;0.00;0.00;0.62;;;;;17.60;1.00;;;;;;2272393;61;1100;-84
2024/04/06 00:21:48;0.00;0.00;0.62;0.00;0.00;0.62;;;;;17.50;1.00;;;;;;2272343;61;1137;-86
2024/04/06 00:24:13;46655.00;0.16;81.40;0.00;0.00;0.62;;;;;17.30;1.00;;;;;;2272286;61;1095;-85
2024/04/06 00:26:40;10294.00;0.03;18.46;0.00;0.00;0.62;;;;;17.30;1.00;;;;;;2272348;61;1384;-85
2024/04/06 00:29:07;0.00;0.00;0.62;0.00;0.00;0.62;;;;;17.40;1.00;;;;;;2272329;61;1035;-85
2024/04/06 00:31:34;86373.00;0.29;150.04;5327.00;0.02;9.85;;;;;16.80;1.00;;;;;;2272051;61;2004;-86
2024/04/06 00:34:01;0.00;0.00;0.62;0.00;0.00;0.62;;;;;16.60;1.00;;;;;;2272274;61;1040;-85
2024/04/06 00:36:28;0.00;0.00;0.62;0.00;0.00;0.62;;;;;16.80;1.00;;;;;;2272115;61;2198;-86
2024/04/06 00:38:54;8169.00;0.03;14.78;0.00;0.00;0.62;;;;;16.80;1.00;;;;;;2272238;61;1094;-85
2024/04/06 00:41:21;320.00;0.00;1.17;0.00;0.00;0.62;;;;;16.90;1.00;;;;;;2272190;61;1094;-83
2024/04/06 00:43:47;0.00;0.00;0.62;0.00;0.00;0.62;;;;;17.00;1.00;;;;;;2272136;61;1204;-85
2024/04/06 00:46:16;124028.00;0.41;215.03;44623.00;0.15;77.89;;;;;17.30;1.00;;;;;;2272032;61;1387;-85
2024/04/06 00:48:42;50200.00;0.17;87.53;0.00;0.00;0.62;;;;;17.10;1.00;;;;;;2272079;61;1106;-85
2024/04/06 00:51:09;34081.00;0.11;59.65;0.00;0.00;0.62;;;;;17.00;1.00;;;;;;2272111;61;1054;-85
2024/04/06 00:53:34;9818.00;0.03;17.63;0.00;0.00;0.62;;;;;16.70;1.00;;;;;;2272147;61;2010;-85
2024/04/06 00:56:02;21065.00;0.07;37.11;0.00;0.00;0.62;;;;;16.60;1.00;;;;;;2272157;61;1311;-85
2024/04/06 00:58:28;2661.00;0.01;5.23;0.00;0.00;0.62;;;;;16.80;1.00;;;;;;2272067;61;1102;-85
2024/04/06 01:00:55;0.00;0.00;0.62;0.00;0.00;0.62;;;;;16.80;1.00;;;;;;2272205;61;1000;-84
2024/04/06 01:03:23;79662.00;0.27;138.45;0.00;0.00;0.62;;;;;16.70;1.00;;;;;;2272019;61;1082;-85
2024/04/06 01:05:50;12860.00;0.04;22.90;0.00;0.00;0.62;;;;;16.70;1.00;;;;;;2272132;61;991;-85
2024/04/06 01:08:16;56486.00;0.19;98.40;0.00;0.00;0.62;;;;;16.60;1.00;;;;;;2272125;61;1328;-85
2024/04/06 01:10:44;68539.00;0.23;119.24;0.00;0.00;0.62;;;;;16.70;1.00;;;;;;2272147;61;1007;-86
2024/04/06 01:13:10;245.00;0.00;1.04;0.00;0.00;0.62;;;;;16.60;1.00;;;;;;2272032;61;2016;-85
2024/04/06 01:15:37;66879.00;0.22;116.37;0.00;0.00;0.62;;;;;16.50;1.00;;;;;;2272029;61;1110;-85
2024/04/06 01:18:03;89808.00;0.30;155.98;0.00;0.00;0.62;;;;;16.50;1.00;;;;;;2272011;61;1373;-85
2024/04/06 01:20:32;36339.00;0.12;63.55;0.00;0.00;0.62;;;;;16.40;1.00;;;;;;2272800;61;1329;-85
2024/04/06 01:22:58;67696.00;0.23;117.78;0.00;0.00;0.62;;;;;16.50;1.00;;;;;;2272161;61;1150;-85
2024/04/06 01:25:26;147522.00;0.49;255.54;22319.00;0.07;39.29;;;;;16.50;1.00;;;;;;2272670;61;2070;-85
2024/04/06 01:27:52;19592.00;0.07;34.56;0.00;0.00;0.62;;;;;16.40;1.00;;;;;;2272718;61;1279;-84
2024/04/06 01:30:19;92983.00;0.31;161.46;0.00;0.00;0.62;;;;;16.30;1.00;;;;;;2272771;61;960;-85
2024/04/06 01:32:46;12570.00;0.04;22.40;0.00;0.00;0.62;;;;;16.20;1.00;;;;;;2272797;61;1915;-86
2024/04/06 01:35:13;331204.00;1.10;571.56;43982.00;0.15;76.78;;;;;16.40;1.00;;;;;;2272887;61;1080;-85
2024/04/06 01:37:39;167105.00;0.56;289.28;27107.00;0.09;47.58;;;;;16.20;1.00;;;;;;2272725;61;1376;-84
2024/04/06 01:40:08;11522.00;0.04;20.59;0.00;0.00;0.62;;;;;16.10;1.00;;;;;;2272753;61;2215;-86
2024/04/06 01:42:35;50118.00;0.17;87.39;0.00;0.00;0.62;;;;;16.10;1.00;;;;;;2272605;61;1129;-85
2024/04/06 01:45:02;100362.00;0.33;174.20;23980.00;0.08;42.16;;;;;16.10;1.00;;;;;;2272688;61;1032;-85
2024/04/06 01:47:28;82096.00;0.27;142.66;0.00;0.00;0.62;;;;;16.00;1.00;;;;;;2272741;61;1297;-85
2024/04/06 01:49:55;30871.00;0.10;54.09;0.00;0.00;0.62;;;;;16.10;1.00;;;;;;2272689;61;1023;-85
2024/04/06 01:52:21;47745.00;0.16;83.29;0.00;0.00;0.62;;;;;16.20;1.00;;;;;;2272624;61;1924;-85
2024/04/06 01:54:48;0.00;0.00;0.62;0.00;0.00;0.62;;;;;16.10;1.00;;;;;;2272601;61;1086;-85
2024/04/06 01:57:14;64364.00;0.21;112.02;0.00;0.00;0.62;;;;;15.90;1.00;;;;;;2272809;61;1275;-85
2024/04/06 01:59:44;143556.00;0.48;248.70;0.00;0.00;0.62;;;;;15.70;1.00;;;;;;2272801;61;1044;-84
2024/04/06 02:02:10;123850.00;0.41;214.72;57364.00;0.19;99.92;;;;;15.70;1.00;;;;;;2272679;61;1050;-84
2024/04/06 02:04:37;17034.00;0.06;30.13;0.00;0.00;0.62;;;;;15.90;1.00;;;;;;2272594;61;1042;-86
2024/04/06 02:07:04;14744.00;0.05;26.17;0.00;0.00;0.62;;;;;15.80;1.00;;;;;;2272600;61;1304;-85
2024/04/06 02:09:31;98479.00;0.33;170.95;24940.00;0.08;43.82;;;;;15.80;1.00;;;;;;2272605;61;1118;-85
2024/04/06 02:11:57;164.00;0.00;0.90;0.00;0.00;0.62;;;;;15.90;1.00;;;;;;2272554;61;2002;-85
2024/04/06 02:14:24;32311.00;0.11;56.58;0.00;0.00;0.62;;;;;16.00;1.00;;;;;;2272644;61;1177;-85
2024/04/06 02:16:51;95951.00;0.32;166.58;0.00;0.00;0.62;;;;;15.70;1.00;;;;;;2272667;61;1337;-86
2024/04/06 02:19:18;36196.00;0.12;63.31;0.00;0.00;0.62;;;;;15.50;1.00;;;;;;2272650;61;1102;-85
2024/04/06 02:21:43;0.00;0.00;0.62;0.00;0.00;0.62;;;;;15.90;1.00;;;;;;2272645;61;1044;-85
2024/04/06 02:24:10;100581.00;0.34;174.57;24974.00;0.08;43.88;;;;;16.00;1.00;;;;;;2272596;61;1075;-85
2024/04/06 02:26:36;21134.00;0.07;37.23;0.00;0.00;0.62;;;;;16.20;1.00;;;;;;2272600;61;1341;-85
2024/04/06 02:29:03;23525.00;0.08;41.37;0.00;0.00;0.62;;;;;16.00;1.00;;;;;;2272690;61;1046;-86
2024/04/06 02:31:29;0.00;0.00;0.62;0.00;0.00;0.62;;;;;16.20;1.00;;;;;;2272551;61;1114;-83
2024/04/06 02:33:57;54515.00;0.18;94.99;0.00;0.00;0.62;;;;;16.20;1.00;;;;;;2272515;61;1947;-85
2024/04/06 02:36:23;0.00;0.00;0.62;0.00;0.00;0.62;;;;;16.10;1.00;;;;;;2272693;61;1289;-85
2024/04/06 02:38:50;128271.00;0.43;222.35;45152.00;0.15;78.80;;;;;16.00;1.00;;;;;;2272722;61;1118;-84
2024/04/06 02:41:16;18373.00;0.06;32.45;0.00;0.00;0.62;;;;;15.70;1.00;;;;;;2272736;61;973;-85
2024/04/06 02:43:42;65840.00;0.22;114.57;0.00;0.00;0.62;;;;;15.60;1.00;;;;;;2272647;61;1090;-85
2024/04/06 02:46:08;36893.00;0.12;64.51;0.00;0.00;0.62;;;;;15.40;1.00;;;;;;2272493;61;1311;-85
2024/04/06 02:48:35;50955.00;0.17;88.84;0.00;0.00;0.62;;;;;15.60;1.00;;;;;;2272524;61;987;-85
2024/04/06 02:51:02;0.00;0.00;0.62;0.00;0.00;0.62;;;;;15.60;1.00;;;;;;2272565;61;1114;-86
2024/04/06 02:53:29;0.00;0.00;0.62;0.00;0.00;0.62;;;;;16.00;1.00;;;;;;2272493;61;2002;-86
2024/04/06 02:55:55;34666.00;0.12;60.66;0.00;0.00;0.62;;;;;16.10;1.00;;;;;;2272592;61;1039;-85
2024/04/06 02:58:23;66742.00;0.22;116.13;0.00;0.00;0.62;;;;;16.30;1.00;;;;;;2272530;61;1362;-85
2024/04/06 03:00:49;37822.00;0.13;66.12;0.00;0.00;0.62;;;;;16.40;1.00;;;;;;2272573;61;1062;-85
2024/04/06 03:03:16;63892.00;0.21;111.20;0.00;0.00;0.62;;;;;16.40;1.00;;;;;;2272491;61;1068;-85
2024/04/06 03:05:42;34890.00;0.12;61.05;0.00;0.00;0.62;;;;;16.50;1.00;;;;;;2272580;61;1115;-86
2024/04/06 03:08:11;252521.00;0.84;436.29;0.00;0.00;0.62;;;;;16.40;1.00;;;;;;2272528;61;1390;-86
2024/04/06 03:10:37;0.00;0.00;0.62;0.00;0.00;0.62;;;;;16.30;1.00;;;;;;2272597;61;1167;-85
2024/04/06 03:13:04;2808.00;0.01;5.49;0.00;0.00;0.62;;;;;16.30;1.00;;;;;;2272522;61;2200;-85
2024/04/06 03:15:30;3030.00;0.01;5.87;0.00;0.00;0.62;;;;;16.30;1.00;;;;;;2272575;61;1079;-86
2024/04/06 03:17:57;52219.00;0.17;91.02;0.00;0.00;0.62;;;;;16.20;1.00;;;;;;2272380;61;2079;-84
2024/04/06 03:20:23;106715.00;0.36;185.16;0.00;0.00;0.62;;;;;16.10;1.00;;;;;;2272494;61;1081;-85
2024/04/06 03:23:01;106828.00;0.36;185.36;0.00;0.00;0.62;;;;;16.20;1.00;;;;;;2272536;61;1037;-85
2024/04/06 03:25:29;65413.00;0.22;113.83;0.00;0.00;0.62;;;;;16.00;1.00;;;;;;2272495;61;972;-86
2024/04/06 03:27:56;19771.00;0.07;34.87;0.00;0.00;0.62;;;;;16.00;1.00;;;;;;2272550;61;1388;-87
2024/04/06 03:30:22;0.00;0.00;0.62;0.00;0.00;0.62;;;;;15.90;1.00;;;;;;2272564;61;1055;-86
2024/04/06 03:32:50;5846.00;0.02;10.75;0.00;0.00;0.62;;;;;15.80;1.00;;;;;;2272457;61;2012;-86
2024/04/06 03:35:16;55679.00;0.19;97.01;0.00;0.00;0.62;;;;;15.60;1.00;;;;;;2272436;61;1114;-87
2024/04/06 03:37:43;20471.00;0.07;36.09;0.00;0.00;0.62;;;;;15.60;1.00;;;;;;2272489;61;1347;-87
2024/04/06 03:40:11;1257.00;0.00;2.80;0.00;0.00;0.62;;;;;15.50;1.00;;;;;;2272486;61;1107;-88
2024/04/06 03:42:38;0.00;0.00;0.62;0.00;0.00;0.62;;;;;15.20;1.00;;;;;;2272221;61;1131;-86
2024/04/06 03:45:06;10241.00;0.03;18.37;0.00;0.00;0.62;;;;;15.00;1.00;;;;;;2272476;61;1080;-86
2024/04/06 03:47:32;18607.00;0.06;32.86;0.00;0.00;0.62;;;;;15.30;1.00;;;;;;2272488;61;1356;-86
2024/04/06 03:49:59;18188.00;0.06;32.13;0.00;0.00;0.62;;;;;15.70;1.00;;;;;;2272453;61;1142;-85
2024/04/06 03:52:25;6732.00;0.02;12.29;0.00;0.00;0.62;;;;;15.90;1.00;;;;;;2272426;61;1916;-85
2024/04/06 03:54:51;24908.00;0.08;43.77;0.00;0.00;0.62;;;;;15.70;1.00;;;;;;2272412;61;1038;-86
2024/04/06 03:57:17;66594.00;0.22;115.87;0.00;0.00;0.62;;;;;15.60;1.00;;;;;;2272432;61;1370;-85
2024/04/06 03:59:45;0.00;0.00;0.62;0.00;0.00;0.62;;;;;15.50;1.00;;;;;;2272372;61;1981;-85
2024/04/06 04:02:11;20750.00;0.07;36.57;0.00;0.00;0.62;;;;;15.50;1.00;;;;;;2272370;61;1048;-85
2024/04/06 04:04:38;641303.00;2.14;1105.59;48055.00;0.16;83.82;;;;;15.30;1.00;;;;;;2272428;61;1094;-86
2024/04/06 04:07:04;5913.00;0.02;10.87;0.00;0.00;0.62;;;;;15.30;1.00;;;;;;2272450;61;1377;-86
2024/04/06 04:09:30;17976.00;0.06;31.76;0.00;0.00;0.62;;;;;15.10;1.00;;;;;;2272389;61;2231;-86
2024/04/06 04:11:56;50261.00;0.17;87.64;0.00;0.00;0.62;;;;;14.80;1.00;;;;;;2272448;61;2005;-86
2024/04/06 04:14:23;13376.00;0.04;23.80;0.00;0.00;0.62;;;;;14.50;1.00;;;;;;2272404;61;1082;-86
2024/04/06 04:16:50;134849.00;0.45;233.69;0.00;0.00;0.62;;;;;14.50;1.00;;;;;;2272368;61;1335;-87
2024/04/06 04:19:17;88556.00;0.30;153.81;0.00;0.00;0.62;;;;;14.40;1.00;;;;;;2272390;61;1073;-85
2024/04/06 04:21:43;0.00;0.00;0.62;0.00;0.00;0.62;;;;;14.40;1.00;;;;;;2272417;61;1110;-87
2024/04/06 04:24:10;0.00;0.00;0.62;0.00;0.00;0.62;;;;;14.40;1.00;;;;;;2272377;61;1046;-87
2024/04/06 04:26:37;50436.00;0.17;87.94;0.00;0.00;0.62;;;;;14.60;1.00;;;;;;2272343;61;1286;-86
2024/04/06 04:29:04;119755.00;0.40;207.66;0.00;0.00;0.62;;;;;14.50;1.00;;;;;;2272373;61;1122;-87
2024/04/06 04:31:30;43103.00;0.14;75.26;0.00;0.00;0.62;;;;;14.30;1.00;;;;;;2272403;61;1051;-85
2024/04/06 04:33:58;0.00;0.00;0.62;0.00;0.00;0.62;;;;;14.40;1.00;;;;;;2272355;61;2005;-85
2024/04/06 04:36:24;15790.00;0.05;27.98;0.00;0.00;0.62;;;;;14.30;1.00;;;;;;2272218;61;1269;-87
2024/04/06 04:38:51;90330.00;0.30;156.88;0.00;0.00;0.62;;;;;14.10;1.00;;;;;;2272318;61;1102;-87
2024/04/06 04:41:17;0.00;0.00;0.62;0.00;0.00;0.62;;;;;14.20;1.00;;;;;;2272248;61;1020;-87
2024/04/06 04:43:43;109457.00;0.36;189.89;19808.00;0.07;34.94;;;;;14.40;1.00;;;;;;2272364;61;1041;-86
2024/04/06 04:46:09;0.00;0.00;0.62;0.00;0.00;0.62;;;;;14.70;1.00;;;;;;2272363;61;1297;-86
2024/04/06 04:48:56;79924.00;0.27;138.91;0.00;0.00;0.62;;;;;14.70;1.00;;;;;;2272325;61;1078;-87
2024/04/06 04:51:23;0.00;0.00;0.62;0.00;0.00;0.62;;;;;14.90;1.00;;;;;;2272181;61;1059;-87
2024/04/06 04:53:50;57433.00;0.19;100.04;0.00;0.00;0.62;;;;;15.00;1.00;;;;;;2272474;61;1992;-86
2024/04/06 04:56:16;61091.00;0.20;106.36;0.00;0.00;0.62;;;;;14.90;1.00;;;;;;2273036;61;1297;-85
2024/04/06 04:58:43;141838.00;0.47;245.74;65372.00;0.22;113.76;;;;;14.70;1.00;;;;;;2272976;61;1074;-86
2024/04/06 05:01:09;0.00;0.00;0.62;0.00;0.00;0.62;;;;;15.00;1.00;;;;;;2273021;61;1129;-85
2024/04/06 05:03:36;115267.00;0.38;199.92;0.00;0.00;0.62;;;;;15.10;1.00;;;;;;2272899;61;1096;-86
2024/04/06 05:06:02;113468.00;0.38;196.81;0.00;0.00;0.62;;;;;14.80;1.00;;;;;;2273025;61;1387;-86
2024/04/06 05:08:31;0.00;0.00;0.62;0.00;0.00;0.62;;;;;14.30;1.00;;;;;;2272990;61;2257;-86
2024/04/06 05:10:57;53273.00;0.18;92.85;0.00;0.00;0.62;;;;;13.90;1.00;;;;;;2273005;61;1033;-86
2024/04/06 05:13:23;21603.00;0.07;38.05;0.00;0.00;0.62;;;;;13.60;1.00;;;;;;2272930;61;2012;-86
2024/04/06 05:15:52;151745.00;0.51;262.81;72612.00;0.24;126.27;;;;;13.40;1.00;;;;;;2273010;61;1002;-86
2024/04/06 05:18:19;34752.00;0.12;60.81;0.00;0.00;0.62;;;;;13.40;1.00;;;;;;2272985;61;1285;-87
2024/04/06 05:20:49;89036.00;0.30;154.64;0.00;0.00;0.62;;;;;13.60;1.00;;;;;;2272963;61;1245;-86
2024/04/06 05:23:16;79812.00;0.27;138.71;0.00;0.00;0.62;;;;;13.50;1.00;;;;;;2272986;61;1013;-86
2024/04/06 05:25:45;14927.00;0.05;26.48;0.00;0.00;0.62;;;;;13.60;1.00;;;;;;2273033;61;1160;-85
2024/04/06 05:28:11;116401.00;0.39;201.87;40225.00;0.13;70.28;;;;;13.70;1.00;;;;;;2272869;61;1425;-85
2024/04/06 05:30:37;0.00;0.00;0.62;0.00;0.00;0.62;;;;;13.80;1.00;;;;;;2272965;61;1118;-86
2024/04/06 05:33:05;53468.00;0.18;93.18;0.00;0.00;0.62;;;;;13.80;1.00;;;;;;2272859;61;1996;-86
2024/04/06 05:35:31;110590.00;0.37;191.85;0.00;0.00;0.62;;;;;14.10;1.00;;;;;;2272854;61;1142;-87
2024/04/06 05:37:58;82467.00;0.27;143.30;0.00;0.00;0.62;;;;;14.20;1.00;;;;;;2272830;61;1372;-86
2024/04/06 05:40:24;80051.00;0.27;139.13;6278.00;0.02;11.50;;;;;14.60;1.00;;;;;;2272872;61;1051;-86
2024/04/06 05:42:52;18196.00;0.06;32.15;0.00;0.00;0.62;;;;;14.60;1.00;;;;;;2272727;61;1050;-86
2024/04/06 05:45:18;5246.00;0.02;9.71;0.00;0.00;0.62;;;;;15.40;1.00;;;;;;2272916;61;1125;-87
2024/04/06 05:47:45;6142.00;0.02;11.26;0.00;0.00;0.62;;;;;15.80;1.00;;;;;;2272863;61;1468;-86
2024/04/06 05:50:10;0.00;0.00;0.62;0.00;0.00;0.62;;;;;16.30;1.00;;;;;;2272773;61;2215;-85
2024/04/06 05:52:37;51025.00;0.17;88.96;0.00;0.00;0.62;;;;;16.90;1.00;;;;;;2272897;61;1982;-85
2024/04/06 05:55:06;29603.00;0.10;51.90;0.00;0.00;0.62;;;;;17.30;1.00;;;;;;2272899;61;1039;-87
2024/04/06 05:57:33;22908.00;0.08;40.31;0.00;0.00;0.62;;;;;17.80;1.00;;;;;;2272839;61;1378;-85
2024/04/06 06:00:01;0.00;0.00;0.62;0.00;0.00;0.62;;;;;18.70;1.00;;;;;;2272877;61;1122;-86
2024/04/06 06:02:27;102982.00;0.34;178.72;33515.00;0.11;58.67;;;;;19.00;1.00;;;;;;2272807;61;1014;-85
2024/04/06 06:04:53;105920.00;0.35;183.79;0.00;0.00;0.62;;;;;19.30;1.00;;;;;;2272722;61;1142;-85
2024/04/06 06:07:20;0.00;0.00;0.62;0.00;0.00;0.62;;;;;19.80;1.00;;;;;;2272759;61;1380;-85
2024/04/06 06:09:46;0.00;0.00;0.62;0.00;0.00;0.62;;;;;20.30;1.00;;;;;;2272847;61;1114;-87
2024/04/06 06:12:14;257107.00;0.86;444.17;52985.00;0.18;92.35;;;;;20.50;1.00;;;;;;2272773;61;2015;-86
2024/04/06 06:14:39;208213.00;0.69;360.06;30834.00;0.10;54.03;;;;;20.90;1.00;;;;;;2272696;61;2009;-85
2024/04/06 06:17:09;6873.00;0.02;12.53;0.00;0.00;0.62;;;;;21.00;1.00;;;;;;2272822;61;1391;-86
2024/04/06 06:19:35;163101.00;0.54;282.38;50548.00;0.17;88.13;;;;;21.80;1.00;;;;;;2272734;61;1122;-87
2024/04/06 06:22:03;66431.00;0.22;115.59;0.00;0.00;0.62;;;;;21.60;1.00;;;;;;2272785;61;1114;-87
2024/04/06 06:24:30;0.00;0.00;0.62;0.00;0.00;0.62;;;;;21.80;1.00;;;;;;2272812;61;1031;-86
2024/04/06 06:26:56;0.00;0.00;0.62;0.00;0.00;0.62;;;;;22.10;1.00;;;;;;2272766;61;1400;-87
2024/04/06 06:29:22;4508.00;0.02;8.43;0.00;0.00;0.62;;;;;22.50;1.00;;;;;;2272815;61;1071;-87
2024/04/06 06:31:49;0.00;0.00;0.62;0.00;0.00;0.62;;;;;22.90;1.00;;;;;;2272786;61;1066;-86
2024/04/06 06:34:19;0.00;0.00;0.62;0.00;0.00;0.62;;;;;23.50;1.00;;;;;;2272760;61;2000;-86
2024/04/06 06:36:46;426161.00;1.42;734.78;219727.00;0.73;379.87;;;;;23.80;1.00;;;;;;2272708;61;1399;-86
2024/04/06 06:39:12;6430.00;0.02;11.76;0.00;0.00;0.62;;;;;24.00;1.00;;;;;;2272752;61;1022;-86
2024/04/06 06:41:38;180109.00;0.60;311.68;27210.00;0.09;47.75;;;;;24.10;1.00;;;;;;2272699;61;1058;-85
2024/04/06 06:44:04;56325.00;0.19;98.12;0.00;0.00;0.62;;;;;24.00;1.00;;;;;;2272718;61;1163;-85
2024/04/06 06:46:31;22260.00;0.07;39.18;0.00;0.00;0.62;;;;;24.20;1.00;;;;;;2272611;61;1277;-87
2024/04/06 06:48:57;70284.00;0.23;122.25;0.00;0.00;0.62;;;;;24.90;1.00;;;;;;2272724;61;1104;-86
2024/04/06 06:51:26;38519.00;0.13;67.33;0.00;0.00;0.62;;;;;25.10;1.00;;;;;;2272525;61;1062;-87
2024/04/06 06:53:52;151796.00;0.51;262.90;17271.00;0.06;30.54;;;;;25.50;1.00;;;;;;2272725;61;2010;-86
2024/04/06 06:56:20;45074.00;0.15;78.67;0.00;0.00;0.62;;;;;25.30;1.00;;;;;;2272617;61;1376;-87
2024/04/06 06:58:47;0.00;0.00;0.62;0.00;0.00;0.62;;;;;25.40;1.00;;;;;;2272800;61;1205;-86
2024/04/06 07:01:13;43475.00;0.14;75.90;0.00;0.00;0.62;;;;;25.70;1.00;;;;;;2272715;61;1109;-86
2024/04/06 07:03:40;29082.00;0.10;50.99;0.00;0.00;0.62;;;;;26.00;1.00;;;;;;2272604;61;1102;-87
2024/04/06 07:06:08;13311.00;0.04;23.69;0.00;0.00;0.62;;;;;26.10;1.00;;;;;;2272663;61;1364;-86
2024/04/06 07:08:36;343476.00;1.14;592.65;109719.00;0.37;190.35;;;;;26.00;1.00;;;;;;2272663;61;1085;-86
2024/04/06 07:11:02;36218.00;0.12;63.34;0.00;0.00;0.62;;;;;25.80;1.00;;;;;;2272696;61;941;-86
2024/04/06 07:13:29;275738.00;0.92;476.21;13234.00;0.04;23.55;;;;;25.90;1.00;;;;;;2272639;61;1925;-85
2024/04/06 07:16:02;40959.00;0.14;71.55;0.00;0.00;0.62;;;;;25.60;1.00;;;;;;2272558;61;1031;-87
2024/04/06 07:18:28;33116.00;0.11;57.98;0.00;0.00;0.62;;;;;25.40;1.00;;;;;;2272620;61;1034;-86
2024/04/06 07:20:54;44086.00;0.15;76.96;0.00;0.00;0.62;;;;;25.20;1.00;;;;;;2272614;61;1127;-86
2024/04/06 07:23:21;14043.00;0.05;24.95;0.00;0.00;0.62;;;;;25.10;1.00;;;;;;2272589;61;898;-86
2024/04/06 07:25:48;346154.00;1.15;597.25;95084.00;0.32;165.09;;;;;24.70;1.00;;;;;;2272566;61;947;-86
2024/04/06 07:28:15;42152.00;0.14;73.61;0.00;0.00;0.62;;;;;24.50;1.00;;;;;;2272595;61;1387;-85
2024/04/06 07:30:41;0.00;0.00;0.62;0.00;0.00;0.62;;;;;24.20;1.00;;;;;;2272586;61;1587;-85
2024/04/06 07:33:07;0.00;0.00;0.62;0.00;0.00;0.62;;;;;24.60;1.00;;;;;;2272473;61;1922;-88
2024/04/06 07:35:33;36844.00;0.12;64.43;0.00;0.00;0.62;;;;;25.30;1.00;;;;;;2272521;61;1114;-87
2024/04/06 07:38:00;19289.00;0.06;34.04;0.00;0.00;0.62;;;;;25.30;1.00;;;;;;2272530;61;1395;-87
2024/04/06 07:40:26;0.00;0.00;0.62;0.00;0.00;0.62;;;;;25.70;1.00;;;;;;2272520;61;1063;-88
2024/04/06 07:42:54;363294.00;1.21;626.71;36428.00;0.12;63.71;;;;;25.30;1.00;;;;;;2272560;61;1023;-86
2024/04/06 07:45:20;0.00;0.00;0.62;0.00;0.00;0.62;;;;;25.50;1.00;;;;;;2272559;61;971;-88
2024/04/06 07:47:47;117505.00;0.39;203.78;42488.00;0.14;74.19;;;;;26.10;1.00;;;;;;2272486;61;1382;-86
2024/04/06 07:50:12;0.00;0.00;0.62;0.00;0.00;0.62;;;;;26.80;1.00;;;;;;2272383;61;1106;-88
2024/04/06 07:52:39;0.00;0.00;0.62;0.00;0.00;0.62;;;;;26.50;1.00;;;;;;2272601;61;1025;-88
2024/04/06 07:55:05;20370.00;0.07;35.91;0.00;0.00;0.62;;;;;26.10;1.00;;;;;;2272506;61;2001;-87
2024/04/06 07:57:32;44777.00;0.15;78.15;0.00;0.00;0.62;;;;;26.20;1.00;;;;;;2272466;61;1373;-86
2024/04/06 08:00:01;24435.00;0.08;42.95;0.00;0.00;0.62;;;;;26.60;1.00;;;;;;2272392;61;1134;-87
2024/04/06 08:02:28;205799.00;0.69;355.91;22557.00;0.08;39.70;;;;;26.40;1.00;;;;;;2272404;61;1022;-85
2024/04/06 08:04:56;0.00;0.00;0.62;0.00;0.00;0.62;;;;;26.40;1.00;;;;;;2272283;61;1122;-86
2024/04/06 08:07:22;0.00;0.00;0.62;0.00;0.00;0.62;;;;;27.20;1.00;;;;;;2272468;61;1314;-86
2024/04/06 08:09:48;17778.00;0.06;31.42;0.00;0.00;0.62;;;;;27.30;1.00;;;;;;2272441;61;1062;-86
2024/04/06 08:12:15;0.00;0.00;0.62;0.00;0.00;0.62;;;;;27.70;1.00;;;;;;2272463;61;1085;-87
2024/04/06 08:14:41;2588.00;0.01;5.11;0.00;0.00;0.62;;;;;28.30;1.00;;;;;;2272377;61;1930;-87
2024/04/06 08:17:09;141618.00;0.47;245.36;0.00;0.00;0.62;;;;;27.70;1.00;;;;;;2272470;61;1296;-86
2024/04/06 08:19:35;0.00;0.00;0.62;0.00;0.00;0.62;;;;;27.10;1.00;;;;;;2272529;61;1014;-86
2024/04/06 08:22:03;146330.00;0.49;253.48;11715.00;0.04;20.92;;;;;25.90;1.00;;;;;;2272389;61;1096;-86
2024/04/06 08:24:29;6578.00;0.02;12.02;0.00;0.00;0.62;;;;;25.90;1.00;;;;;;2272437;61;1093;-85
2024/04/06 08:26:56;0.00;0.00;0.62;0.00;0.00;0.62;;;;;25.50;1.00;;;;;;2272196;61;1402;-86
2024/04/06 08:29:22;86799.00;0.29;150.78;10868.00;0.04;19.45;;;;;25.30;1.00;;;;;;2272145;61;1066;-87
2024/04/06 08:31:49;63511.00;0.21;110.55;0.00;0.00;0.62;;;;;24.90;1.00;;;;;;2272386;61;1031;-85
2024/04/06 08:34:16;29947.00;0.10;52.49;0.00;0.00;0.62;;;;;24.90;1.00;;;;;;2272357;61;1920;-85
2024/04/06 08:36:43;79628.00;0.27;138.39;0.00;0.00;0.62;;;;;25.30;1.00;;;;;;2272263;61;1405;-86
2024/04/06 08:39:09;0.00;0.00;0.62;0.00;0.00;0.62;;;;;25.20;1.00;;;;;;2272366;61;939;-87
2024/04/06 08:41:36;126736.00;0.42;219.70;0.00;0.00;0.62;;;;;25.40;1.00;;;;;;2272436;61;1064;-87
2024/04/06 08:44:05;0.00;0.00;0.62;0.00;0.00;0.62;;;;;25.50;1.00;;;;;;2272431;61;1016;-86
2024/04/06 08:46:32;59741.00;0.20;104.03;0.00;0.00;0.62;;;;;25.70;1.00;;;;;;2272359;61;1380;-86
2024/04/06 08:49:00;0.00;0.00;0.62;0.00;0.00;0.62;;;;;25.90;1.00;;;;;;2272322;61;2198;-87
2024/04/06 08:51:32;2736.00;0.01;5.36;0.00;0.00;0.62;;;;;25.90;1.00;;;;;;2272324;61;1086;-87
2024/04/06 08:53:59;56940.00;0.19;99.19;0.00;0.00;0.62;;;;;25.60;1.00;;;;;;2272308;61;1928;-87
2024/04/06 08:56:26;174750.00;0.58;302.45;24726.00;0.08;43.45;;;;;25.60;1.00;;;;;;2272307;61;1373;-87
2024/04/06 08:58:52;96392.00;0.32;167.34;0.00;0.00;0.62;;;;;25.40;1.00;;;;;;2272397;61;1008;-87
2024/04/06 09:01:18;17398.00;0.06;30.76;0.00;0.00;0.62;;;;;25.60;1.00;;;;;;2272355;61;1021;-86
2024/04/06 09:03:44;0.00;0.00;0.62;0.00;0.00;0.62;;;;;25.50;1.00;;;;;;2272339;61;1050;-87
2024/04/06 09:06:18;333783.00;1.11;575.99;23765.00;0.08;41.79;;;;;25.80;1.00;;;;;;2271995;61;2039;-88
2024/04/06 09:08:46;0.00;0.00;0.62;0.00;0.00;0.62;;;;;25.70;1.00;;;;;;2272206;61;1111;-88
2024/04/06 09:11:13;148.00;0.00;0.88;0.00;0.00;0.62;;;;;25.20;1.00;;;;;;2272238;61;1021;-87
2024/04/06 09:13:39;116148.00;0.39;201.44;50641.00;0.17;88.29;;;;;25.00;1.00;;;;;;2272210;61;2265;-88
2024/04/06 09:16:08;198545.00;0.66;343.42;34507.00;0.12;60.38;;;;;25.30;1.00;;;;;;2272194;61;1399;-88
2024/04/06 09:18:35;17197.00;0.06;30.42;0.00;0.00;0.62;;;;;25.50;1.00;;;;;;2272290;61;1110;-87
2024/04/06 09:21:02;69098.00;0.23;120.20;0.00;0.00;0.62;;;;;25.80;1.00;;;;;;2272336;61;980;-87
2024/04/06 09:23:29;11629.00;0.04;20.77;0.00;0.00;0.62;;;;;25.80;1.00;;;;;;2272200;61;1187;-86
2024/04/06 09:26:01;0.00;0.00;0.62;0.00;0.00;0.62;;;;;26.10;1.00;;;;;;2272246;61;1235;-88
2024/04/06 09:28:27;178321.00;0.59;308.60;58554.00;0.20;101.98;;;;;26.20;1.00;;;;;;2272159;61;1588;-88
2024/04/06 09:30:57;0.00;0.00;0.62;0.00;0.00;0.62;;;;;26.20;1.00;;;;;;2272242;61;1004;-87
2024/04/06 09:33:24;76722.00;0.26;133.37;0.00;0.00;0.62;;;;;26.20;1.00;;;;;;2272137;61;1915;-87
2024/04/06 09:35:51;0.00;0.00;0.62;0.00;0.00;0.62;;;;;25.90;1.00;;;;;;2272167;61;1069;-86
2024/04/06 09:38:18;14290.00;0.05;25.38;0.00;0.00;0.62;;;;;26.30;1.00;;;;;;2272144;61;1308;-87
2024/04/06 09:40:47;54768.00;0.18;95.43;0.00;0.00;0.62;;;;;26.90;1.00;;;;;;2272604;61;949;-86
2024/04/06 09:43:14;67851.00;0.23;118.05;0.00;0.00;0.62;;;;;26.90;1.00;;;;;;2272932;61;1049;-86
2024/04/06 09:45:42;134140.00;0.45;232.47;51612.00;0.17;89.97;;;;;26.80;1.00;;;;;;2272893;61;1690;-86
2024/04/06 09:48:09;92035.00;0.31;159.82;0.00;0.00;0.62;;;;;27.00;1.00;;;;;;2272764;61;1342;-86
2024/04/06 09:50:38;33015.00;0.11;57.80;0.00;0.00;0.62;;;;;27.10;1.00;;;;;;2272705;61;1091;-88
2024/04/06 09:53:04;21596.00;0.07;38.03;0.00;0.00;0.62;;;;;26.90;1.00;;;;;;2272777;61;1059;-87
2024/04/06 09:55:35;49359.00;0.16;86.08;0.00;0.00;0.62;;;;;27.20;1.00;;;;;;2272853;61;1680;-87
2024/04/06 09:58:02;27178.00;0.09;47.70;0.00;0.00;0.62;;;;;27.30;1.00;;;;;;2272744;61;1741;-86
2024/04/06 10:00:31;267602.00;0.89;462.22;71868.00;0.24;124.99;;;;;27.30;1.00;;;;;;2272831;61;960;-87
2024/04/06 10:02:59;35393.00;0.12;61.92;0.00;0.00;0.62;;;;;27.20;1.00;;;;;;2272726;61;1624;-86
2024/04/06 10:05:38;124740.00;0.42;216.26;0.00;0.00;0.62;;;;;26.80;1.00;;;;;;2272803;61;1082;-88
2024/04/06 10:08:05;0.00;0.00;0.62;0.00;0.00;0.62;;;;;27.10;1.00;;;;;;2272614;61;1325;-87
2024/04/06 10:10:32;59205.00;0.20;103.10;0.00;0.00;0.62;;;;;27.40;1.00;;;;;;2272567;61;1019;-86
2024/04/06 10:12:58;0.00;0.00;0.62;0.00;0.00;0.62;;;;;27.40;1.00;;;;;;2272691;61;1075;-88